sensor_id;sensor_type;location;lat;lon;timestamp;P1;durP1;ratioP1;P2;durP2;ratioP2
10945;SDS011;5525;42.648;23.368;2023-11-22T00:00:40;28.00;;;16.02;;
10945;SDS011;5525;42.648;23.368;2023-11-22T00:03:07;26.95;;;16.52;;
10945;SDS011;5525;42.648;23.368;2023-11-22T00:05:33;24.38;;;16.08;;
10945;SDS011;5525;42.648;23.368;2023-11-22T00:08:01;22.65;;;14.43;;
10945;SDS011;5525;42.648;23.368;2023-11-22T00:10:27;21.58;;;14.65;;
10945;SDS011;5525;42.648;23.368;2023-11-22T00:12:54;25.42;;;15.65;;
10945;SDS011;5525;42.648;23.368;2023-11-22T00:15:21;21.67;;;14.60;;
10945;SDS011;5525;42.648;23.368;2023-11-22T00:17:49;23.85;;;16.13;;
10945;SDS011;5525;42.648;23.368;2023-11-22T00:20:16;21.92;;;14.75;;
10945;SDS011;5525;42.648;23.368;2023-11-22T00:22:43;23.17;;;15.95;;
10945;SDS011;5525;42.648;23.368;2023-11-22T00:25:10;24.67;;;15.57;;
10945;SDS011;5525;42.648;23.368;2023-11-22T00:27:38;24.08;;;16.50;;
10945;SDS011;5525;42.648;23.368;2023-11-22T00:30:05;21.92;;;15.23;;
10945;SDS011;5525;42.648;23.368;2023-11-22T00:32:35;22.88;;;15.35;;
10945;SDS011;5525;42.648;23.368;2023-11-22T00:35:03;20.77;;;14.95;;
10945;SDS011;5525;42.648;23.368;2023-11-22T00:37:31;24.00;;;15.20;;
10945;SDS011;5525;42.648;23.368;2023-11-22T00:39:57;19.15;;;12.90;;
10945;SDS011;5525;42.648;23.368;2023-11-22T00:42:25;20.33;;;13.32;;
10945;SDS011;5525;42.648;23.368;2023-11-22T00:44:52;19.83;;;12.95;;
10945;SDS011;5525;42.648;23.368;2023-11-22T00:47:19;22.05;;;13.98;;
10945;SDS011;5525;42.648;23.368;2023-11-22T00:49:46;21.45;;;13.40;;
10945;SDS011;5525;42.648;23.368;2023-11-22T00:52:14;21.15;;;14.07;;
10945;SDS011;5525;42.648;23.368;2023-11-22T00:54:41;22.35;;;13.52;;
10945;SDS011;5525;42.648;23.368;2023-11-22T00:57:08;19.38;;;13.55;;
10945;SDS011;5525;42.648;23.368;2023-11-22T00:59:35;22.38;;;14.98;;
10945;SDS011;5525;42.648;23.368;2023-11-22T01:02:02;20.88;;;14.40;;
10945;SDS011;5525;42.648;23.368;2023-11-22T01:04:30;20.98;;;15.15;;
10945;SDS011;5525;42.648;23.368;2023-11-22T01:07:00;20.35;;;14.88;;
10945;SDS011;5525;42.648;23.368;2023-11-22T01:09:29;22.25;;;15.25;;
10945;SDS011;5525;42.648;23.368;2023-11-22T01:11:57;24.17;;;14.55;;
10945;SDS011;5525;42.648;23.368;2023-11-22T01:14:23;20.83;;;15.07;;
10945;SDS011;5525;42.648;23.368;2023-11-22T01:16:51;22.83;;;15.15;;
10945;SDS011;5525;42.648;23.368;2023-11-22T01:19:18;22.58;;;15.00;;
10945;SDS011;5525;42.648;23.368;2023-11-22T01:21:44;23.27;;;14.82;;
10945;SDS011;5525;42.648;23.368;2023-11-22T01:24:11;21.98;;;14.07;;
10945;SDS011;5525;42.648;23.368;2023-11-22T01:26:39;20.83;;;14.63;;
10945;SDS011;5525;42.648;23.368;2023-11-22T01:29:06;19.80;;;14.30;;
10945;SDS011;5525;42.648;23.368;2023-11-22T01:31:33;21.15;;;14.48;;
10945;SDS011;5525;42.648;23.368;2023-11-22T01:33:59;21.00;;;14.43;;
10945;SDS011;5525;42.648;23.368;2023-11-22T01:36:26;19.83;;;14.07;;
10945;SDS011;5525;42.648;23.368;2023-11-22T01:38:53;22.67;;;14.18;;
10945;SDS011;5525;42.648;23.368;2023-11-22T01:41:21;20.52;;;13.85;;
10945;SDS011;5525;42.648;23.368;2023-11-22T01:43:49;19.67;;;14.63;;
10945;SDS011;5525;42.648;23.368;2023-11-22T01:46:19;23.90;;;15.32;;
10945;SDS011;5525;42.648;23.368;2023-11-22T01:48:49;22.15;;;14.57;;
10945;SDS011;5525;42.648;23.368;2023-11-22T01:51:17;22.25;;;13.80;;
10945;SDS011;5525;42.648;23.368;2023-11-22T01:53:44;21.73;;;14.00;;
10945;SDS011;5525;42.648;23.368;2023-11-22T01:56:12;20.85;;;13.75;;
10945;SDS011;5525;42.648;23.368;2023-11-22T01:58:40;24.13;;;13.43;;
10945;SDS011;5525;42.648;23.368;2023-11-22T02:01:08;19.65;;;12.30;;
10945;SDS011;5525;42.648;23.368;2023-11-22T02:03:37;16.73;;;11.88;;
10945;SDS011;5525;42.648;23.368;2023-11-22T02:06:04;18.83;;;11.95;;
10945;SDS011;5525;42.648;23.368;2023-11-22T02:08:32;18.25;;;12.02;;
10945;SDS011;5525;42.648;23.368;2023-11-22T02:10:58;17.75;;;12.27;;
10945;SDS011;5525;42.648;23.368;2023-11-22T02:13:27;17.50;;;12.48;;
10945;SDS011;5525;42.648;23.368;2023-11-22T02:15:54;17.70;;;12.48;;
10945;SDS011;5525;42.648;23.368;2023-11-22T02:18:25;20.95;;;12.57;;
10945;SDS011;5525;42.648;23.368;2023-11-22T02:20:52;19.17;;;13.73;;
10945;SDS011;5525;42.648;23.368;2023-11-22T02:23:20;19.92;;;13.45;;
10945;SDS011;5525;42.648;23.368;2023-11-22T02:25:47;21.42;;;15.18;;
10945;SDS011;5525;42.648;23.368;2023-11-22T02:28:14;22.75;;;15.00;;
10945;SDS011;5525;42.648;23.368;2023-11-22T02:30:41;19.55;;;14.02;;
10945;SDS011;5525;42.648;23.368;2023-11-22T02:33:08;23.88;;;15.52;;
10945;SDS011;5525;42.648;23.368;2023-11-22T02:35:35;24.45;;;15.35;;
10945;SDS011;5525;42.648;23.368;2023-11-22T02:38:02;21.77;;;15.05;;
10945;SDS011;5525;42.648;23.368;2023-11-22T02:40:31;18.15;;;12.57;;
10945;SDS011;5525;42.648;23.368;2023-11-22T02:42:58;18.55;;;12.85;;
10945;SDS011;5525;42.648;23.368;2023-11-22T02:45:30;22.90;;;13.75;;
10945;SDS011;5525;42.648;23.368;2023-11-22T02:47:57;20.65;;;13.98;;
10945;SDS011;5525;42.648;23.368;2023-11-22T02:50:24;21.20;;;13.55;;
10945;SDS011;5525;42.648;23.368;2023-11-22T02:52:52;20.75;;;14.93;;
10945;SDS011;5525;42.648;23.368;2023-11-22T02:55:18;21.15;;;15.48;;
10945;SDS011;5525;42.648;23.368;2023-11-22T02:57:47;23.83;;;16.27;;
10945;SDS011;5525;42.648;23.368;2023-11-22T03:00:14;23.90;;;14.40;;
10945;SDS011;5525;42.648;23.368;2023-11-22T03:02:41;22.00;;;15.38;;
10945;SDS011;5525;42.648;23.368;2023-11-22T03:05:08;19.58;;;14.57;;
10945;SDS011;5525;42.648;23.368;2023-11-22T03:07:35;21.08;;;14.52;;
10945;SDS011;5525;42.648;23.368;2023-11-22T03:10:03;20.38;;;14.88;;
10945;SDS011;5525;42.648;23.368;2023-11-22T03:12:32;20.05;;;14.23;;
10945;SDS011;5525;42.648;23.368;2023-11-22T03:15:00;20.95;;;14.05;;
10945;SDS011;5525;42.648;23.368;2023-11-22T03:17:27;18.85;;;13.63;;
10945;SDS011;5525;42.648;23.368;2023-11-22T03:19:54;19.50;;;13.75;;
10945;SDS011;5525;42.648;23.368;2023-11-22T03:22:22;21.00;;;13.75;;
10945;SDS011;5525;42.648;23.368;2023-11-22T03:24:48;19.90;;;13.63;;
10945;SDS011;5525;42.648;23.368;2023-11-22T03:27:15;19.80;;;13.70;;
10945;SDS011;5525;42.648;23.368;2023-11-22T03:29:42;22.38;;;14.55;;
10945;SDS011;5525;42.648;23.368;2023-11-22T03:32:11;16.38;;;11.90;;
10945;SDS011;5525;42.648;23.368;2023-11-22T03:34:37;21.80;;;13.60;;
10945;SDS011;5525;42.648;23.368;2023-11-22T03:37:04;17.23;;;13.05;;
10945;SDS011;5525;42.648;23.368;2023-11-22T03:39:32;16.77;;;12.27;;
10945;SDS011;5525;42.648;23.368;2023-11-22T03:41:59;15.65;;;12.60;;
10945;SDS011;5525;42.648;23.368;2023-11-22T03:44:25;20.77;;;12.48;;
10945;SDS011;5525;42.648;23.368;2023-11-22T03:46:53;18.23;;;12.10;;
10945;SDS011;5525;42.648;23.368;2023-11-22T03:49:22;17.55;;;12.40;;
10945;SDS011;5525;42.648;23.368;2023-11-22T03:51:49;19.80;;;13.70;;
10945;SDS011;5525;42.648;23.368;2023-11-22T03:54:15;18.45;;;13.27;;
10945;SDS011;5525;42.648;23.368;2023-11-22T03:56:43;17.15;;;12.43;;
10945;SDS011;5525;42.648;23.368;2023-11-22T03:59:10;17.52;;;11.95;;
10945;SDS011;5525;42.648;23.368;2023-11-22T04:01:37;18.10;;;12.32;;
10945;SDS011;5525;42.648;23.368;2023-11-22T04:04:04;17.85;;;12.98;;
10945;SDS011;5525;42.648;23.368;2023-11-22T04:06:32;18.23;;;12.13;;
10945;SDS011;5525;42.648;23.368;2023-11-22T04:08:59;17.20;;;11.77;;
10945;SDS011;5525;42.648;23.368;2023-11-22T04:11:26;13.60;;;10.27;;
10945;SDS011;5525;42.648;23.368;2023-11-22T04:13:54;15.43;;;10.85;;
10945;SDS011;5525;42.648;23.368;2023-11-22T04:16:21;17.85;;;11.25;;
10945;SDS011;5525;42.648;23.368;2023-11-22T04:18:48;16.27;;;11.48;;
10945;SDS011;5525;42.648;23.368;2023-11-22T04:21:15;21.20;;;12.13;;
10945;SDS011;5525;42.648;23.368;2023-11-22T04:23:43;15.93;;;10.60;;
10945;SDS011;5525;42.648;23.368;2023-11-22T04:26:10;18.08;;;11.10;;
10945;SDS011;5525;42.648;23.368;2023-11-22T04:28:36;20.02;;;11.30;;
10945;SDS011;5525;42.648;23.368;2023-11-22T04:31:02;21.25;;;12.15;;
10945;SDS011;5525;42.648;23.368;2023-11-22T04:33:30;19.45;;;12.02;;
10945;SDS011;5525;42.648;23.368;2023-11-22T04:35:57;19.75;;;13.23;;
10945;SDS011;5525;42.648;23.368;2023-11-22T04:38:23;21.80;;;13.07;;
10945;SDS011;5525;42.648;23.368;2023-11-22T04:40:51;17.38;;;12.60;;
10945;SDS011;5525;42.648;23.368;2023-11-22T04:43:18;19.45;;;13.43;;
10945;SDS011;5525;42.648;23.368;2023-11-22T04:45:45;27.27;;;18.30;;
10945;SDS011;5525;42.648;23.368;2023-11-22T04:48:12;21.83;;;14.60;;
10945;SDS011;5525;42.648;23.368;2023-11-22T04:50:40;19.63;;;12.98;;
10945;SDS011;5525;42.648;23.368;2023-11-22T04:53:07;20.42;;;13.45;;
10945;SDS011;5525;42.648;23.368;2023-11-22T04:55:34;19.67;;;13.82;;
10945;SDS011;5525;42.648;23.368;2023-11-22T04:58:03;22.77;;;14.07;;
10945;SDS011;5525;42.648;23.368;2023-11-22T05:00:30;20.33;;;14.35;;
10945;SDS011;5525;42.648;23.368;2023-11-22T05:02:57;18.33;;;13.93;;
10945;SDS011;5525;42.648;23.368;2023-11-22T05:05:23;18.30;;;13.63;;
10945;SDS011;5525;42.648;23.368;2023-11-22T05:07:50;19.60;;;13.82;;
10945;SDS011;5525;42.648;23.368;2023-11-22T05:10:17;18.80;;;13.68;;
10945;SDS011;5525;42.648;23.368;2023-11-22T05:12:44;18.48;;;12.55;;
10945;SDS011;5525;42.648;23.368;2023-11-22T05:15:12;18.77;;;13.02;;
10945;SDS011;5525;42.648;23.368;2023-11-22T05:17:39;20.52;;;13.75;;
10945;SDS011;5525;42.648;23.368;2023-11-22T05:20:07;21.17;;;14.60;;
10945;SDS011;5525;42.648;23.368;2023-11-22T05:22:35;22.58;;;14.60;;
10945;SDS011;5525;42.648;23.368;2023-11-22T05:25:02;20.05;;;14.20;;
10945;SDS011;5525;42.648;23.368;2023-11-22T05:27:29;23.00;;;14.25;;
10945;SDS011;5525;42.648;23.368;2023-11-22T05:29:57;20.13;;;13.88;;
10945;SDS011;5525;42.648;23.368;2023-11-22T05:32:27;20.27;;;12.88;;
10945;SDS011;5525;42.648;23.368;2023-11-22T05:34:54;19.55;;;14.68;;
10945;SDS011;5525;42.648;23.368;2023-11-22T05:37:21;20.35;;;15.00;;
10945;SDS011;5525;42.648;23.368;2023-11-22T05:39:47;20.30;;;14.10;;
10945;SDS011;5525;42.648;23.368;2023-11-22T05:42:14;20.08;;;14.95;;
10945;SDS011;5525;42.648;23.368;2023-11-22T05:44:41;20.50;;;15.38;;
10945;SDS011;5525;42.648;23.368;2023-11-22T05:47:08;22.23;;;15.68;;
10945;SDS011;5525;42.648;23.368;2023-11-22T05:49:36;23.02;;;16.85;;
10945;SDS011;5525;42.648;23.368;2023-11-22T05:52:03;24.60;;;16.05;;
10945;SDS011;5525;42.648;23.368;2023-11-22T05:54:32;21.38;;;16.25;;
10945;SDS011;5525;42.648;23.368;2023-11-22T05:56:59;23.75;;;15.93;;
10945;SDS011;5525;42.648;23.368;2023-11-22T05:59:25;25.92;;;16.80;;
10945;SDS011;5525;42.648;23.368;2023-11-22T06:01:52;24.58;;;17.17;;
10945;SDS011;5525;42.648;23.368;2023-11-22T06:04:19;22.02;;;15.35;;
10945;SDS011;5525;42.648;23.368;2023-11-22T06:06:47;21.98;;;14.82;;
10945;SDS011;5525;42.648;23.368;2023-11-22T06:09:14;21.27;;;14.43;;
10945;SDS011;5525;42.648;23.368;2023-11-22T06:11:40;20.70;;;14.63;;
10945;SDS011;5525;42.648;23.368;2023-11-22T06:14:07;21.75;;;15.57;;
10945;SDS011;5525;42.648;23.368;2023-11-22T06:16:34;20.83;;;15.10;;
10945;SDS011;5525;42.648;23.368;2023-11-22T06:19:01;20.17;;;14.85;;
10945;SDS011;5525;42.648;23.368;2023-11-22T06:21:28;21.80;;;14.95;;
10945;SDS011;5525;42.648;23.368;2023-11-22T06:23:56;21.10;;;15.75;;
10945;SDS011;5525;42.648;23.368;2023-11-22T06:26:23;20.65;;;14.77;;
10945;SDS011;5525;42.648;23.368;2023-11-22T06:28:50;25.48;;;16.65;;
10945;SDS011;5525;42.648;23.368;2023-11-22T06:31:16;25.08;;;17.33;;
10945;SDS011;5525;42.648;23.368;2023-11-22T06:33:44;26.83;;;18.90;;
10945;SDS011;5525;42.648;23.368;2023-11-22T06:36:10;28.15;;;19.20;;
10945;SDS011;5525;42.648;23.368;2023-11-22T06:38:39;26.05;;;18.10;;
10945;SDS011;5525;42.648;23.368;2023-11-22T06:41:07;24.55;;;17.13;;
10945;SDS011;5525;42.648;23.368;2023-11-22T06:43:34;27.10;;;16.85;;
10945;SDS011;5525;42.648;23.368;2023-11-22T06:46:01;22.08;;;15.70;;
10945;SDS011;5525;42.648;23.368;2023-11-22T06:48:30;24.02;;;15.82;;
10945;SDS011;5525;42.648;23.368;2023-11-22T06:50:57;23.83;;;16.95;;
10945;SDS011;5525;42.648;23.368;2023-11-22T06:53:24;24.02;;;16.92;;
10945;SDS011;5525;42.648;23.368;2023-11-22T06:55:51;24.67;;;16.25;;
10945;SDS011;5525;42.648;23.368;2023-11-22T06:58:19;30.15;;;18.10;;
10945;SDS011;5525;42.648;23.368;2023-11-22T07:00:46;25.33;;;17.83;;
10945;SDS011;5525;42.648;23.368;2023-11-22T07:03:13;22.92;;;15.23;;
10945;SDS011;5525;42.648;23.368;2023-11-22T07:05:41;23.92;;;15.63;;
10945;SDS011;5525;42.648;23.368;2023-11-22T07:08:08;23.88;;;15.90;;
10945;SDS011;5525;42.648;23.368;2023-11-22T07:10:36;23.88;;;16.52;;
10945;SDS011;5525;42.648;23.368;2023-11-22T07:13:03;25.85;;;18.08;;
10945;SDS011;5525;42.648;23.368;2023-11-22T07:15:31;26.08;;;17.63;;
10945;SDS011;5525;42.648;23.368;2023-11-22T07:17:58;19.00;;;15.55;;
10945;SDS011;5525;42.648;23.368;2023-11-22T07:20:25;20.67;;;15.63;;
10945;SDS011;5525;42.648;23.368;2023-11-22T07:22:52;23.95;;;16.60;;
10945;SDS011;5525;42.648;23.368;2023-11-22T07:25:22;24.48;;;17.52;;
10945;SDS011;5525;42.648;23.368;2023-11-22T07:27:50;23.98;;;17.13;;
10945;SDS011;5525;42.648;23.368;2023-11-22T07:30:18;25.13;;;17.33;;
10945;SDS011;5525;42.648;23.368;2023-11-22T07:32:49;23.42;;;17.00;;
10945;SDS011;5525;42.648;23.368;2023-11-22T07:35:17;22.33;;;17.15;;
10945;SDS011;5525;42.648;23.368;2023-11-22T07:37:45;20.58;;;15.30;;
10945;SDS011;5525;42.648;23.368;2023-11-22T07:40:13;21.35;;;15.93;;
10945;SDS011;5525;42.648;23.368;2023-11-22T07:42:40;21.90;;;16.30;;
10945;SDS011;5525;42.648;23.368;2023-11-22T07:45:07;23.83;;;17.48;;
10945;SDS011;5525;42.648;23.368;2023-11-22T07:47:36;22.17;;;16.48;;
10945;SDS011;5525;42.648;23.368;2023-11-22T07:50:07;26.08;;;17.23;;
10945;SDS011;5525;42.648;23.368;2023-11-22T07:52:34;24.13;;;16.00;;
10945;SDS011;5525;42.648;23.368;2023-11-22T07:55:03;29.52;;;17.75;;
10945;SDS011;5525;42.648;23.368;2023-11-22T07:57:33;27.13;;;17.95;;
10945;SDS011;5525;42.648;23.368;2023-11-22T08:00:00;22.65;;;16.05;;
10945;SDS011;5525;42.648;23.368;2023-11-22T08:02:30;20.65;;;15.35;;
10945;SDS011;5525;42.648;23.368;2023-11-22T08:04:57;20.40;;;15.57;;
10945;SDS011;5525;42.648;23.368;2023-11-22T08:07:28;20.73;;;15.57;;
10945;SDS011;5525;42.648;23.368;2023-11-22T08:09:58;23.65;;;16.42;;
10945;SDS011;5525;42.648;23.368;2023-11-22T08:12:34;19.40;;;15.80;;
10945;SDS011;5525;42.648;23.368;2023-11-22T08:15:01;22.83;;;15.82;;
10945;SDS011;5525;42.648;23.368;2023-11-22T08:17:28;20.50;;;15.50;;
10945;SDS011;5525;42.648;23.368;2023-11-22T08:19:58;22.75;;;16.42;;
10945;SDS011;5525;42.648;23.368;2023-11-22T08:22:25;25.25;;;16.33;;
10945;SDS011;5525;42.648;23.368;2023-11-22T08:24:55;23.77;;;15.75;;
10945;SDS011;5525;42.648;23.368;2023-11-22T08:27:22;22.40;;;15.80;;
10945;SDS011;5525;42.648;23.368;2023-11-22T08:29:49;21.20;;;15.25;;
10945;SDS011;5525;42.648;23.368;2023-11-22T08:32:16;21.73;;;15.60;;
10945;SDS011;5525;42.648;23.368;2023-11-22T08:34:46;19.25;;;14.38;;
10945;SDS011;5525;42.648;23.368;2023-11-22T08:37:13;18.35;;;14.70;;
10945;SDS011;5525;42.648;23.368;2023-11-22T08:39:39;17.02;;;13.95;;
10945;SDS011;5525;42.648;23.368;2023-11-22T08:42:09;20.48;;;13.80;;
10945;SDS011;5525;42.648;23.368;2023-11-22T08:44:36;23.70;;;17.27;;
10945;SDS011;5525;42.648;23.368;2023-11-22T08:47:04;23.88;;;15.20;;
10945;SDS011;5525;42.648;23.368;2023-11-22T08:49:30;20.83;;;15.07;;
10945;SDS011;5525;42.648;23.368;2023-11-22T08:51:57;19.00;;;14.35;;
10945;SDS011;5525;42.648;23.368;2023-11-22T08:54:24;21.85;;;15.15;;
10945;SDS011;5525;42.648;23.368;2023-11-22T08:56:53;21.58;;;16.42;;
10945;SDS011;5525;42.648;23.368;2023-11-22T08:59:23;20.98;;;16.55;;
10945;SDS011;5525;42.648;23.368;2023-11-22T09:01:50;21.92;;;16.52;;
10945;SDS011;5525;42.648;23.368;2023-11-22T09:04:17;22.10;;;15.75;;
10945;SDS011;5525;42.648;23.368;2023-11-22T09:06:45;17.67;;;14.23;;
10945;SDS011;5525;42.648;23.368;2023-11-22T09:09:12;18.15;;;13.38;;
10945;SDS011;5525;42.648;23.368;2023-11-22T09:11:41;19.00;;;14.07;;
10945;SDS011;5525;42.648;23.368;2023-11-22T09:14:08;20.88;;;14.75;;
10945;SDS011;5525;42.648;23.368;2023-11-22T09:16:37;18.58;;;14.32;;
10945;SDS011;5525;42.648;23.368;2023-11-22T09:19:04;19.77;;;14.40;;
10945;SDS011;5525;42.648;23.368;2023-11-22T09:21:32;19.63;;;14.77;;
10945;SDS011;5525;42.648;23.368;2023-11-22T09:24:00;18.90;;;15.63;;
10945;SDS011;5525;42.648;23.368;2023-11-22T09:26:27;21.73;;;15.85;;
10945;SDS011;5525;42.648;23.368;2023-11-22T09:28:54;24.38;;;17.73;;
10945;SDS011;5525;42.648;23.368;2023-11-22T09:31:21;21.23;;;16.05;;
10945;SDS011;5525;42.648;23.368;2023-11-22T09:33:50;21.67;;;17.05;;
10945;SDS011;5525;42.648;23.368;2023-11-22T09:36:17;22.42;;;16.50;;
10945;SDS011;5525;42.648;23.368;2023-11-22T09:38:44;23.00;;;16.95;;
10945;SDS011;5525;42.648;23.368;2023-11-22T09:41:12;23.45;;;16.63;;
10945;SDS011;5525;42.648;23.368;2023-11-22T09:43:39;25.90;;;16.35;;
10945;SDS011;5525;42.648;23.368;2023-11-22T09:46:07;23.85;;;16.95;;
10945;SDS011;5525;42.648;23.368;2023-11-22T09:48:36;24.80;;;15.57;;
10945;SDS011;5525;42.648;23.368;2023-11-22T09:51:19;19.48;;;15.13;;
10945;SDS011;5525;42.648;23.368;2023-11-22T09:53:52;22.75;;;15.63;;
10945;SDS011;5525;42.648;23.368;2023-11-22T09:56:19;20.98;;;15.00;;
10945;SDS011;5525;42.648;23.368;2023-11-22T09:58:46;19.50;;;15.23;;
10945;SDS011;5525;42.648;23.368;2023-11-22T10:01:19;23.50;;;16.35;;
10945;SDS011;5525;42.648;23.368;2023-11-22T10:03:47;23.02;;;16.75;;
10945;SDS011;5525;42.648;23.368;2023-11-22T10:06:15;19.70;;;15.63;;
10945;SDS011;5525;42.648;23.368;2023-11-22T10:08:43;23.33;;;17.83;;
10945;SDS011;5525;42.648;23.368;2023-11-22T10:11:12;24.25;;;18.05;;
10945;SDS011;5525;42.648;23.368;2023-11-22T10:13:42;24.98;;;18.17;;
10945;SDS011;5525;42.648;23.368;2023-11-22T10:16:11;24.23;;;16.90;;
10945;SDS011;5525;42.648;23.368;2023-11-22T10:18:41;20.83;;;16.58;;
10945;SDS011;5525;42.648;23.368;2023-11-22T10:21:22;22.42;;;16.20;;
10945;SDS011;5525;42.648;23.368;2023-11-22T10:23:50;23.10;;;17.48;;
10945;SDS011;5525;42.648;23.368;2023-11-22T10:26:18;25.88;;;18.10;;
10945;SDS011;5525;42.648;23.368;2023-11-22T10:28:44;23.08;;;17.25;;
10945;SDS011;5525;42.648;23.368;2023-11-22T10:31:11;22.38;;;16.63;;
10945;SDS011;5525;42.648;23.368;2023-11-22T10:33:39;25.25;;;16.80;;
10945;SDS011;5525;42.648;23.368;2023-11-22T10:36:07;24.60;;;17.25;;
10945;SDS011;5525;42.648;23.368;2023-11-22T10:38:35;21.25;;;16.20;;
10945;SDS011;5525;42.648;23.368;2023-11-22T10:41:03;24.42;;;17.50;;
10945;SDS011;5525;42.648;23.368;2023-11-22T10:43:30;22.88;;;17.83;;
10945;SDS011;5525;42.648;23.368;2023-11-22T10:46:00;24.80;;;17.75;;
10945;SDS011;5525;42.648;23.368;2023-11-22T10:48:28;23.38;;;17.38;;
10945;SDS011;5525;42.648;23.368;2023-11-22T10:50:56;26.88;;;18.23;;
10945;SDS011;5525;42.648;23.368;2023-11-22T10:53:28;26.33;;;18.40;;
10945;SDS011;5525;42.648;23.368;2023-11-22T10:56:02;27.25;;;18.35;;
10945;SDS011;5525;42.648;23.368;2023-11-22T10:58:32;27.05;;;18.40;;
10945;SDS011;5525;42.648;23.368;2023-11-22T11:01:00;24.63;;;17.67;;
10945;SDS011;5525;42.648;23.368;2023-11-22T11:03:32;27.27;;;18.88;;
10945;SDS011;5525;42.648;23.368;2023-11-22T11:06:07;30.25;;;19.08;;
10945;SDS011;5525;42.648;23.368;2023-11-22T11:08:38;27.05;;;19.00;;
10945;SDS011;5525;42.648;23.368;2023-11-22T11:11:07;26.90;;;19.23;;
10945;SDS011;5525;42.648;23.368;2023-11-22T11:13:34;30.17;;;20.13;;
10945;SDS011;5525;42.648;23.368;2023-11-22T11:16:00;25.95;;;19.25;;
10945;SDS011;5525;42.648;23.368;2023-11-22T11:18:28;32.53;;;19.90;;
10945;SDS011;5525;42.648;23.368;2023-11-22T11:20:55;24.00;;;18.60;;
10945;SDS011;5525;42.648;23.368;2023-11-22T11:23:25;28.25;;;19.88;;
10945;SDS011;5525;42.648;23.368;2023-11-22T11:25:54;29.55;;;19.67;;
10945;SDS011;5525;42.648;23.368;2023-11-22T11:28:23;30.73;;;20.90;;
10945;SDS011;5525;42.648;23.368;2023-11-22T11:30:52;28.90;;;20.63;;
10945;SDS011;5525;42.648;23.368;2023-11-22T11:33:19;27.63;;;20.50;;
10945;SDS011;5525;42.648;23.368;2023-11-22T11:35:54;27.80;;;19.40;;
10945;SDS011;5525;42.648;23.368;2023-11-22T11:38:27;26.17;;;20.23;;
10945;SDS011;5525;42.648;23.368;2023-11-22T11:41:00;27.98;;;20.25;;
10945;SDS011;5525;42.648;23.368;2023-11-22T11:43:41;33.00;;;20.45;;
10945;SDS011;5525;42.648;23.368;2023-11-22T11:46:09;27.67;;;20.45;;
10945;SDS011;5525;42.648;23.368;2023-11-22T11:48:36;30.65;;;20.20;;
10945;SDS011;5525;42.648;23.368;2023-11-22T11:51:03;29.70;;;20.10;;
10945;SDS011;5525;42.648;23.368;2023-11-22T11:53:31;24.60;;;18.90;;
10945;SDS011;5525;42.648;23.368;2023-11-22T11:55:59;25.58;;;18.98;;
10945;SDS011;5525;42.648;23.368;2023-11-22T11:58:26;30.70;;;20.38;;
10945;SDS011;5525;42.648;23.368;2023-11-22T12:00:55;27.02;;;19.45;;
10945;SDS011;5525;42.648;23.368;2023-11-22T12:03:22;25.45;;;19.60;;
10945;SDS011;5525;42.648;23.368;2023-11-22T12:05:49;27.33;;;19.90;;
10945;SDS011;5525;42.648;23.368;2023-11-22T12:08:16;26.33;;;20.15;;
10945;SDS011;5525;42.648;23.368;2023-11-22T12:10:43;29.00;;;20.27;;
10945;SDS011;5525;42.648;23.368;2023-11-22T12:13:13;27.48;;;19.80;;
10945;SDS011;5525;42.648;23.368;2023-11-22T12:15:47;27.92;;;18.77;;
10945;SDS011;5525;42.648;23.368;2023-11-22T12:18:15;25.58;;;18.10;;
10945;SDS011;5525;42.648;23.368;2023-11-22T12:20:42;21.00;;;17.45;;
10945;SDS011;5525;42.648;23.368;2023-11-22T12:23:20;24.58;;;18.55;;
10945;SDS011;5525;42.648;23.368;2023-11-22T12:25:48;24.05;;;18.65;;
10945;SDS011;5525;42.648;23.368;2023-11-22T12:28:16;26.42;;;18.95;;
10945;SDS011;5525;42.648;23.368;2023-11-22T12:30:42;23.63;;;17.73;;
10945;SDS011;5525;42.648;23.368;2023-11-22T12:33:10;24.05;;;17.77;;
10945;SDS011;5525;42.648;23.368;2023-11-22T12:35:42;22.60;;;17.50;;
10945;SDS011;5525;42.648;23.368;2023-11-22T12:38:09;23.35;;;18.17;;
10945;SDS011;5525;42.648;23.368;2023-11-22T12:40:37;24.33;;;18.58;;
10945;SDS011;5525;42.648;23.368;2023-11-22T12:43:04;23.17;;;17.35;;
10945;SDS011;5525;42.648;23.368;2023-11-22T12:45:31;19.13;;;15.15;;
10945;SDS011;5525;42.648;23.368;2023-11-22T12:48:11;20.40;;;15.07;;
10945;SDS011;5525;42.648;23.368;2023-11-22T12:50:47;19.30;;;15.02;;
10945;SDS011;5525;42.648;23.368;2023-11-22T12:53:15;21.92;;;14.25;;
10945;SDS011;5525;42.648;23.368;2023-11-22T12:55:42;18.17;;;13.90;;
10945;SDS011;5525;42.648;23.368;2023-11-22T12:58:10;17.77;;;13.63;;
10945;SDS011;5525;42.648;23.368;2023-11-22T13:00:37;18.33;;;13.75;;
10945;SDS011;5525;42.648;23.368;2023-11-22T13:03:04;15.90;;;11.40;;
10945;SDS011;5525;42.648;23.368;2023-11-22T13:05:31;17.05;;;13.52;;
10945;SDS011;5525;42.648;23.368;2023-11-22T13:08:00;17.67;;;12.55;;
10945;SDS011;5525;42.648;23.368;2023-11-22T13:10:28;16.30;;;13.05;;
10945;SDS011;5525;42.648;23.368;2023-11-22T13:12:56;14.65;;;12.50;;
10945;SDS011;5525;42.648;23.368;2023-11-22T13:15:23;21.65;;;13.90;;
10945;SDS011;5525;42.648;23.368;2023-11-22T13:17:51;18.17;;;13.98;;
10945;SDS011;5525;42.648;23.368;2023-11-22T13:20:21;25.98;;;15.82;;
10945;SDS011;5525;42.648;23.368;2023-11-22T13:22:48;25.35;;;15.98;;
10945;SDS011;5525;42.648;23.368;2023-11-22T13:25:17;25.85;;;17.52;;
10945;SDS011;5525;42.648;23.368;2023-11-22T13:27:45;27.77;;;17.83;;
10945;SDS011;5525;42.648;23.368;2023-11-22T13:30:13;21.92;;;17.25;;
10945;SDS011;5525;42.648;23.368;2023-11-22T13:32:40;25.58;;;18.25;;
10945;SDS011;5525;42.648;23.368;2023-11-22T13:35:08;29.98;;;20.75;;
10945;SDS011;5525;42.648;23.368;2023-11-22T13:37:40;23.92;;;17.45;;
10945;SDS011;5525;42.648;23.368;2023-11-22T13:40:08;27.85;;;19.63;;
10945;SDS011;5525;42.648;23.368;2023-11-22T13:42:41;24.25;;;17.50;;
10945;SDS011;5525;42.648;23.368;2023-11-22T13:45:09;26.30;;;18.42;;
10945;SDS011;5525;42.648;23.368;2023-11-22T13:47:40;20.95;;;16.80;;
10945;SDS011;5525;42.648;23.368;2023-11-22T13:50:08;24.00;;;17.85;;
10945;SDS011;5525;42.648;23.368;2023-11-22T13:52:36;25.05;;;17.25;;
10945;SDS011;5525;42.648;23.368;2023-11-22T13:55:03;24.95;;;17.23;;
10945;SDS011;5525;42.648;23.368;2023-11-22T13:57:35;28.20;;;17.63;;
10945;SDS011;5525;42.648;23.368;2023-11-22T14:00:03;22.08;;;16.95;;
10945;SDS011;5525;42.648;23.368;2023-11-22T14:02:34;24.92;;;17.80;;
10945;SDS011;5525;42.648;23.368;2023-11-22T14:05:01;28.02;;;17.92;;
10945;SDS011;5525;42.648;23.368;2023-11-22T14:07:32;29.58;;;18.65;;
10945;SDS011;5525;42.648;23.368;2023-11-22T14:10:00;29.98;;;19.48;;
10945;SDS011;5525;42.648;23.368;2023-11-22T14:12:28;28.23;;;19.52;;
10945;SDS011;5525;42.648;23.368;2023-11-22T14:14:55;34.42;;;21.75;;
10945;SDS011;5525;42.648;23.368;2023-11-22T14:17:23;28.77;;;20.27;;
10945;SDS011;5525;42.648;23.368;2023-11-22T14:19:50;29.35;;;20.50;;
10945;SDS011;5525;42.648;23.368;2023-11-22T14:22:17;29.52;;;20.70;;
10945;SDS011;5525;42.648;23.368;2023-11-22T14:24:45;32.20;;;21.55;;